Portada
METAR-TAF:

METAR-TAF

Aeroports :

Aeroport de Moulay Ali Cherif

Rachidia, Marroc

latitud: 31-56N, longitud: 004-24W, altitud: 1034 m

Observació

L'informe es va fer fa 24 minuts, a les 13:00 UTC
Vent 9 kt amb direcció variable
Temperatura 41°C
Humitat 3%
Pressió 1021 hPa
Visibilitat 10 km o més
Escasses núvols a una alçada de 3300 ft

METAR: GMFK 191300Z VRB09KT 9999 FEW033 41/M13 Q1021 NOSIG

Hora: 14:24 (13:24 UTC)


TAF: manca

Observacions i pronòstics meteorològics de més de 4000 aeroports (METAR i TAF).

Les estacions disponibles són els punts grocs i vermells al mapa.

Posi el ratolí al punt desitjat per veure el nom de l'estació.

Feu clic per veure les observacions i els pronòstics meteorològics.

Per canviar el mapa: feu clic els botons verds amb una creu de color negre per apropar; al botó verd amb un guió per allunyar la imatge; o en les fletxes verdes per a mapes adjacents.


METAR-TAF: